Time;durP1;ratioP1;P1;durP2;ratioP2;P2;SDS_P1;SDS_P2;PMS_P1;PMS_P2;Temp;Humidity;BMP_temperature;BMP_pressure;BME280_temperature;BME280_humidity;BME280_pressure;Samples;Min_cycle;Max_cycle;Signal;HPM_P1;HPM_P2
2023/04/23 00:01:05;;;;;;;10.97;7.37;;;12.10;92.30;12.10;99810.00;;;;4932007;28;87656;-66
2023/04/23 00:03:33;;;;;;;11.80;7.60;;;12.10;92.60;12.10;99797.00;;;;4933584;28;100024;-66
2023/04/23 00:06:05;;;;;;;14.27;8.47;;;12.10;93.10;12.10;99802.00;;;;4932631;28;89335;-66
2023/04/23 00:08:32;;;;;;;8.67;7.10;;;12.10;93.40;12.10;99808.00;;;;4933883;28;89184;-66
2023/04/23 00:10:58;;;;;;;11.93;7.90;;;12.10;93.70;12.10;99797.00;;;;4931551;28;87941;-66
2023/04/23 00:13:24;;;;;;;7.87;4.80;;;12.10;94.10;12.10;99788.00;;;;4935908;28;87906;-66
2023/04/23 00:15:50;;;;;;;7.20;5.50;;;12.10;94.30;12.10;99793.00;;;;4934051;28;99394;-65
2023/04/23 00:18:19;;;;;;;7.73;4.97;;;12.10;94.60;12.10;99794.00;;;;4932877;28;88069;-65
2023/04/23 00:20:45;;;;;;;6.27;4.63;;;12.10;94.70;12.10;99788.00;;;;4932511;28;87915;-65
2023/04/23 00:23:10;;;;;;;6.03;4.73;;;12.10;94.90;12.10;99790.00;;;;4936135;28;87510;-67
2023/04/23 00:25:36;;;;;;;7.37;5.50;;;12.10;95.00;12.10;99790.00;;;;4938895;28;90135;-67
2023/04/23 00:28:02;;;;;;;9.50;4.60;;;12.10;95.20;12.10;99786.00;;;;4933076;28;116962;-65
2023/04/23 00:30:28;;;;;;;7.93;4.77;;;12.10;95.50;12.10;99781.00;;;;4935416;28;89037;-67
2023/04/23 00:32:54;;;;;;;4.73;4.20;;;12.10;95.80;12.10;99777.00;;;;4932128;28;107718;-65
2023/04/23 00:35:19;;;;;;;7.00;4.90;;;12.10;96.10;12.10;99779.00;;;;4929460;28;92256;-65
2023/04/23 00:37:45;;;;;;;9.63;5.27;;;12.10;96.30;12.10;99775.00;;;;4934093;28;100451;-66
2023/04/23 00:40:11;;;;;;;9.87;5.03;;;12.10;96.60;12.10;99777.00;;;;4931083;28;110201;-66
2023/04/23 00:42:38;;;;;;;5.33;4.83;;;12.10;97.10;12.10;99776.00;;;;4929676;28;91991;-66
2023/04/23 00:45:07;;;;;;;4.77;4.13;;;12.10;96.80;12.10;99780.00;;;;4933514;28;88049;-66
2023/04/23 00:47:33;;;;;;;5.63;4.17;;;12.10;96.80;12.00;99769.00;;;;4930747;28;88284;-66
2023/04/23 00:49:59;;;;;;;5.10;4.03;;;12.10;97.00;12.00;99775.00;;;;4933648;28;87939;-66
2023/04/23 00:52:25;;;;;;;6.57;3.83;;;12.00;97.10;12.00;99778.00;;;;4930754;28;87777;-65
2023/04/23 00:54:51;;;;;;;6.03;4.37;;;12.00;97.40;11.90;99774.00;;;;4932799;28;95856;-66
2023/04/23 00:57:17;;;;;;;5.80;4.50;;;12.00;97.60;11.90;99772.00;;;;4933631;28;118770;-66
2023/04/23 00:59:43;;;;;;;6.43;3.83;;;12.00;97.80;12.00;99781.00;;;;4933776;28;107692;-66
2023/04/23 01:02:09;;;;;;;6.37;4.47;;;12.00;98.00;11.90;99778.00;;;;4935254;28;103531;-66
2023/04/23 01:04:36;;;;;;;4.77;3.57;;;12.00;98.20;11.90;99776.00;;;;4932743;28;88041;-66
2023/04/23 01:07:02;;;;;;;5.93;4.23;;;11.90;98.40;12.00;99779.00;;;;4930842;28;88720;-66
2023/04/23 01:09:28;;;;;;;5.30;4.80;;;12.00;98.60;11.90;99777.00;;;;4930023;28;105685;-66
2023/04/23 01:11:54;;;;;;;6.90;4.27;;;12.00;98.70;11.90;99773.00;;;;4932355;28;109529;-67
2023/04/23 01:14:20;;;;;;;7.97;5.30;;;12.00;98.90;11.90;99778.00;;;;4931800;28;88810;-67
2023/04/23 01:16:46;;;;;;;5.50;4.83;;;11.90;99.10;11.90;99771.00;;;;4934516;28;118399;-66
2023/04/23 01:19:13;;;;;;;8.30;4.63;;;11.90;99.30;11.90;99772.00;;;;4932394;28;88942;-66
2023/04/23 01:21:40;;;;;;;5.40;4.87;;;11.90;99.50;11.90;99770.00;;;;4934598;28;88093;-67
2023/04/23 01:24:08;;;;;;;6.67;5.07;;;11.90;99.60;11.90;99774.00;;;;4932083;28;88163;-66
2023/04/23 01:26:35;;;;;;;5.53;4.17;;;12.00;99.70;11.90;99775.00;;;;4936531;28;108179;-66
2023/04/23 01:29:01;;;;;;;8.03;4.97;;;11.90;99.80;11.80;99769.00;;;;4939149;28;87963;-66
2023/04/23 01:31:27;;;;;;;6.00;5.17;;;11.90;99.90;11.80;99772.00;;;;4935928;28;88160;-67
2023/04/23 01:33:54;;;;;;;5.47;3.70;;;11.80;99.90;11.80;99775.00;;;;4929801;28;116717;-65
2023/04/23 01:36:22;;;;;;;6.90;5.70;;;11.80;99.90;11.80;99775.00;;;;4933420;28;117043;-66
2023/04/23 01:38:57;;;;;;;10.17;6.00;;;11.80;99.90;11.80;99769.00;;;;4939006;28;87782;-66
2023/04/23 01:41:23;;;;;;;5.20;4.00;;;11.80;99.90;11.70;99770.00;;;;4931600;28;109099;-66
2023/04/23 01:43:48;;;;;;;4.57;4.07;;;11.80;99.90;11.70;99774.00;;;;4929310;28;119782;-66
2023/04/23 01:46:14;;;;;;;10.70;5.83;;;11.80;99.90;11.70;99767.00;;;;4930574;28;113127;-66
2023/04/23 01:48:40;;;;;;;6.50;4.60;;;11.70;99.90;11.70;99769.00;;;;4930118;28;105534;-66
2023/04/23 01:51:06;;;;;;;5.67;4.50;;;11.70;99.90;11.70;99780.00;;;;4932336;28;108832;-66
2023/04/23 01:53:32;;;;;;;8.90;4.67;;;11.60;99.90;11.70;99777.00;;;;4932964;28;88698;-66
2023/04/23 01:55:59;;;;;;;5.53;4.60;;;11.70;99.90;11.70;99772.00;;;;4932888;28;117015;-66
2023/04/23 01:58:25;;;;;;;7.33;5.33;;;11.70;99.90;11.60;99773.00;;;;4931154;28;88000;-66
2023/04/23 02:00:51;;;;;;;7.37;4.87;;;11.60;99.90;11.60;99774.00;;;;4929987;28;108365;-66
2023/04/23 02:03:16;;;;;;;6.00;4.30;;;11.60;99.90;11.60;99771.00;;;;4932327;28;87971;-66
2023/04/23 02:05:43;;;;;;;6.53;4.90;;;11.60;99.90;11.60;99774.00;;;;4931231;28;117277;-66
2023/04/23 02:08:09;;;;;;;6.77;4.67;;;11.60;99.90;11.60;99766.00;;;;4930718;28;102351;-66
2023/04/23 02:10:35;;;;;;;11.97;5.87;;;11.60;99.90;11.50;99766.00;;;;4935008;28;87901;-66
2023/04/23 02:13:01;;;;;;;6.00;5.00;;;11.60;99.90;11.50;99762.00;;;;4934037;28;106545;-66
2023/04/23 02:15:28;;;;;;;8.30;5.93;;;11.60;99.90;11.50;99769.00;;;;4934417;28;89314;-65
2023/04/23 02:17:54;;;;;;;7.50;4.80;;;11.50;99.90;11.40;99763.00;;;;4934532;28;87895;-66
2023/04/23 02:20:20;;;;;;;10.10;6.50;;;11.50;99.90;11.40;99767.00;;;;4921373;28;87885;-66
2023/04/23 02:22:47;;;;;;;8.60;5.63;;;11.50;99.90;11.40;99759.00;;;;4933495;28;103162;-66
2023/04/23 02:25:14;;;;;;;7.63;5.63;;;11.40;99.90;11.40;99766.00;;;;4931767;28;108898;-66
2023/04/23 02:27:41;;;;;;;19.80;8.53;;;11.40;99.90;11.30;99762.00;;;;4933654;28;87703;-66
2023/04/23 02:30:08;;;;;;;9.77;4.80;;;11.40;99.90;11.30;99763.00;;;;4937071;28;87736;-66
2023/04/23 02:32:36;;;;;;;8.60;5.57;;;11.40;99.90;11.20;99754.00;;;;4934640;28;112993;-66
2023/04/23 02:35:02;;;;;;;9.87;5.77;;;11.30;99.90;11.10;99751.00;;;;4933673;28;89506;-66
2023/04/23 02:37:28;;;;;;;8.57;5.93;;;11.20;99.90;11.10;99756.00;;;;4931855;28;87794;-66
2023/04/23 02:39:53;;;;;;;6.03;4.43;;;11.20;99.90;11.00;99748.00;;;;4933325;28;87779;-66
2023/04/23 02:42:19;;;;;;;8.90;5.40;;;11.10;99.90;10.90;99756.00;;;;4933001;28;117234;-66
2023/04/23 02:44:45;;;;;;;7.97;5.27;;;11.00;99.90;10.90;99739.00;;;;4932132;28;118162;-66
2023/04/23 02:47:10;;;;;;;5.43;4.87;;;11.00;99.90;10.80;99744.00;;;;4935899;28;100702;-67
2023/04/23 02:49:36;;;;;;;6.93;5.03;;;10.90;99.90;10.80;99745.00;;;;4918252;28;108845;-66
2023/04/23 02:52:02;;;;;;;6.60;5.20;;;10.90;99.90;10.70;99747.00;;;;4932730;28;118714;-66
2023/04/23 02:54:28;;;;;;;5.60;4.50;;;10.80;99.90;10.70;99756.00;;;;4934081;28;88223;-66
2023/04/23 02:56:53;;;;;;;6.47;5.27;;;10.80;99.90;10.60;99752.00;;;;4933751;28;109442;-65
2023/04/23 02:59:19;;;;;;;7.13;5.00;;;10.70;99.90;10.60;99749.00;;;;4935812;28;109299;-67
2023/04/23 03:01:45;;;;;;;6.13;5.33;;;10.60;99.90;10.50;99747.00;;;;4933833;28;89125;-67
2023/04/23 03:04:11;;;;;;;9.90;4.90;;;10.60;99.90;10.50;99750.00;;;;4934102;28;117358;-67
2023/04/23 03:06:37;;;;;;;4.90;4.07;;;10.60;99.90;10.40;99755.00;;;;4937520;28;90218;-67
2023/04/23 03:09:02;;;;;;;5.60;4.30;;;10.50;99.90;10.40;99753.00;;;;4934493;28;87985;-67
2023/04/23 03:11:28;;;;;;;6.27;4.90;;;10.50;99.90;10.30;99748.00;;;;4933142;28;116984;-66
2023/04/23 03:13:54;;;;;;;7.77;4.77;;;10.40;99.90;10.30;99750.00;;;;4935297;28;116994;-68
2023/04/23 03:16:19;;;;;;;7.27;5.07;;;10.40;99.90;10.30;99743.00;;;;4936735;28;110663;-66
2023/04/23 03:18:45;;;;;;;5.43;4.83;;;10.40;99.90;10.20;99735.00;;;;4934839;28;106963;-67
2023/04/23 03:21:11;;;;;;;6.57;4.53;;;10.30;99.90;10.20;99745.00;;;;4934899;28;116308;-66
2023/04/23 03:23:36;;;;;;;9.27;6.13;;;10.30;99.90;10.20;99741.00;;;;4933654;28;118321;-67
2023/04/23 03:26:02;;;;;;;6.73;5.10;;;10.30;99.90;10.20;99742.00;;;;4934676;28;110019;-66
2023/04/23 03:28:30;;;;;;;8.17;5.03;;;10.20;99.90;10.10;99742.00;;;;4932005;28;87708;-67
2023/04/23 03:30:55;;;;;;;5.40;4.80;;;10.20;99.90;10.10;99747.00;;;;4934655;28;100946;-67
2023/04/23 03:33:21;;;;;;;8.07;4.80;;;10.20;99.90;10.10;99740.00;;;;4932148;28;87688;-67
2023/04/23 03:35:47;;;;;;;7.40;4.73;;;10.10;99.90;10.10;99737.00;;;;4933062;28;109789;-67
2023/04/23 03:38:12;;;;;;;4.87;4.03;;;10.10;99.90;10.10;99739.00;;;;4937900;28;109022;-67
2023/04/23 03:40:38;;;;;;;4.27;3.73;;;10.10;99.90;10.10;99725.00;;;;4915049;28;117803;-67
2023/04/23 03:43:03;;;;;;;9.97;4.43;;;10.10;99.90;10.10;99740.00;;;;4932346;28;117331;-67
2023/04/23 03:45:30;;;;;;;7.53;5.03;;;10.10;99.90;10.10;99728.00;;;;4933107;28;110435;-67
2023/04/23 03:47:55;;;;;;;5.53;3.97;;;10.10;99.90;10.10;99731.00;;;;4930167;28;88004;-67
2023/04/23 03:50:21;;;;;;;8.40;5.63;;;10.20;99.90;10.10;99725.00;;;;4935130;28;116955;-68
2023/04/23 03:52:46;;;;;;;6.53;3.90;;;10.20;99.90;10.10;99737.00;;;;4931604;28;116714;-67
2023/04/23 03:55:12;;;;;;;7.27;3.63;;;10.20;99.90;10.20;99728.00;;;;4935591;28;111936;-67
2023/04/23 03:57:38;;;;;;;13.50;4.80;;;10.20;99.90;10.20;99725.00;;;;4934280;28;109084;-67
2023/04/23 04:00:10;;;;;;;5.83;4.43;;;10.20;99.90;10.20;99727.00;;;;4933406;28;117578;-67
2023/04/23 04:02:37;;;;;;;5.10;4.10;;;10.30;99.90;10.30;99737.00;;;;4936246;28;87266;-67
2023/04/23 04:05:05;;;;;;;5.80;4.00;;;10.30;99.90;10.30;99731.00;;;;4934164;28;87794;-67
2023/04/23 04:07:30;;;;;;;3.80;3.17;;;10.30;99.90;10.40;99729.00;;;;4933340;28;88079;-67
2023/04/23 04:09:56;;;;;;;4.20;3.80;;;10.40;99.90;10.40;99733.00;;;;4932487;28;119063;-67
2023/04/23 04:12:22;;;;;;;4.23;3.40;;;10.40;99.90;10.50;99735.00;;;;4936977;28;117342;-67
2023/04/23 04:14:47;;;;;;;4.47;3.80;;;10.60;99.90;10.60;99733.00;;;;4934837;28;110551;-68
2023/04/23 04:17:14;;;;;;;6.80;4.33;;;10.60;99.90;10.60;99733.00;;;;4931588;28;108928;-67
2023/04/23 04:19:41;;;;;;;5.80;3.83;;;10.60;99.90;10.60;99728.00;;;;4933870;28;88036;-67
2023/04/23 04:22:08;;;;;;;4.93;3.73;;;10.60;99.90;10.70;99737.00;;;;4934227;28;88206;-67
2023/04/23 04:24:34;;;;;;;3.83;3.17;;;10.60;99.90;10.70;99732.00;;;;4936574;28;87912;-67
2023/04/23 04:27:01;;;;;;;8.63;3.40;;;10.70;99.90;10.80;99727.00;;;;4936919;28;87204;-67
2023/04/23 04:29:27;;;;;;;4.97;3.97;;;10.80;99.90;10.90;99724.00;;;;4930227;28;89115;-67
2023/04/23 04:31:54;;;;;;;7.67;3.53;;;10.90;99.90;11.10;99718.00;;;;4934955;28;88863;-67
2023/04/23 04:34:20;;;;;;;6.03;4.30;;;11.00;99.90;11.20;99717.00;;;;4934572;28;94195;-67
2023/04/23 04:36:46;;;;;;;8.43;4.77;;;11.10;99.90;11.30;99722.00;;;;4929291;28;88027;-67
2023/04/23 04:39:15;;;;;;;4.37;3.90;;;11.30;99.90;11.40;99717.00;;;;4933413;28;88339;-67
2023/04/23 04:41:42;;;;;;;5.17;3.80;;;11.40;99.90;11.50;99704.00;;;;4931959;28;88967;-67
2023/04/23 04:44:08;;;;;;;6.53;3.67;;;11.50;99.90;11.60;99712.00;;;;4932516;28;88429;-67
2023/04/23 04:46:39;;;;;;;4.50;3.70;;;11.60;99.90;11.70;99710.00;;;;4937493;28;87832;-67
2023/04/23 04:49:07;;;;;;;5.70;4.13;;;11.70;99.90;11.80;99715.00;;;;4937857;28;88042;-67
2023/04/23 04:51:34;;;;;;;7.20;4.20;;;11.80;99.90;11.90;99721.00;;;;4934726;28;88642;-65
2023/04/23 04:54:00;;;;;;;5.53;5.03;;;11.90;99.90;12.00;99709.00;;;;4930512;28;87962;-65
2023/04/23 04:56:26;;;;;;;8.37;4.60;;;12.00;99.90;12.10;99731.00;;;;4926948;28;87880;-65
2023/04/23 04:58:51;;;;;;;5.30;3.80;;;12.00;99.90;12.20;99730.00;;;;4930818;28;89861;-66
2023/04/23 05:01:18;;;;;;;6.07;4.73;;;12.10;99.90;12.20;99738.00;;;;4925844;28;88350;-65
2023/04/23 05:03:44;;;;;;;5.17;4.00;;;12.20;99.90;12.30;99736.00;;;;4927592;28;88026;-66
2023/04/23 05:06:10;;;;;;;7.43;3.90;;;12.30;99.90;12.40;99745.00;;;;4930195;28;88175;-67
2023/04/23 05:08:35;;;;;;;4.57;3.23;;;12.30;99.90;12.50;99735.00;;;;4930600;28;88771;-66
2023/04/23 05:11:02;;;;;;;4.63;3.93;;;12.40;99.90;12.60;99745.00;;;;4928554;28;88518;-66
2023/04/23 05:13:31;;;;;;;12.50;3.80;;;12.50;99.90;12.70;99736.00;;;;4921967;28;88216;-66
2023/04/23 05:15:57;;;;;;;4.83;4.27;;;12.60;99.90;12.70;99740.00;;;;4925637;28;87389;-66
2023/04/23 05:18:23;;;;;;;4.53;3.70;;;12.70;99.90;12.80;99740.00;;;;4927081;28;117569;-66
2023/04/23 05:20:48;;;;;;;4.30;2.87;;;12.80;99.90;12.90;99734.00;;;;4934089;28;89910;-66
2023/04/23 05:23:14;;;;;;;3.43;3.13;;;12.90;99.90;13.00;99740.00;;;;4925247;28;88854;-69
2023/04/23 05:25:40;;;;;;;4.30;3.87;;;13.00;99.90;13.10;99735.00;;;;4927007;28;88025;-65
2023/04/23 05:28:07;;;;;;;4.37;2.73;;;13.00;99.90;13.20;99745.00;;;;4930619;28;95800;-66
2023/04/23 05:30:33;;;;;;;5.05;3.38;;;13.10;99.90;13.30;99747.00;;;;4925924;28;88704;-67
2023/04/23 05:32:59;;;;;;;3.13;2.88;;;13.20;99.90;13.40;99739.00;;;;4927607;28;110841;-67
2023/04/23 05:35:24;;;;;;;2.63;2.37;;;13.30;99.90;13.50;99746.00;;;;4931060;28;87846;-65
2023/04/23 05:37:50;;;;;;;3.00;2.57;;;13.40;99.90;13.60;99746.00;;;;4930241;28;90639;-66
2023/04/23 05:40:16;;;;;;;4.75;3.28;;;13.50;99.90;13.70;99748.00;;;;4928306;28;117467;-66
2023/04/23 05:42:41;;;;;;;3.50;3.20;;;13.60;99.90;13.90;99748.00;;;;4932170;28;100416;-65
2023/04/23 05:45:08;;;;;;;4.30;3.17;;;13.80;99.90;14.10;99734.00;;;;4928403;28;108397;-66
2023/04/23 05:47:33;;;;;;;6.22;4.05;;;14.00;99.90;14.30;99751.00;;;;4927938;28;109288;-66
2023/04/23 05:50:00;;;;;;;3.47;3.17;;;14.10;99.90;14.60;99744.00;;;;4924029;28;88918;-66
2023/04/23 05:52:26;;;;;;;4.43;3.17;;;14.40;99.90;15.00;99749.00;;;;4927678;28;87876;-66
2023/04/23 05:54:51;;;;;;;6.20;2.75;;;14.80;99.90;15.30;99748.00;;;;4931574;28;87913;-66
2023/04/23 05:57:17;;;;;;;2.97;2.78;;;15.10;99.90;15.60;99757.00;;;;4931221;28;89864;-66
2023/04/23 05:59:43;;;;;;;5.20;2.88;;;15.40;99.90;15.90;99757.00;;;;4931325;28;117395;-66
2023/04/23 06:02:09;;;;;;;5.47;2.85;;;15.70;99.90;16.10;99749.00;;;;4929157;28;110499;-66
2023/04/23 06:04:36;;;;;;;4.18;3.00;;;15.90;99.90;16.30;99760.00;;;;4931588;28;88512;-66
2023/04/23 06:07:02;;;;;;;2.95;2.67;;;16.10;99.90;16.50;99753.00;;;;4932379;28;94017;-66
2023/04/23 06:09:28;;;;;;;5.70;2.78;;;16.30;99.90;16.60;99756.00;;;;4931172;28;92241;-65
2023/04/23 06:11:54;;;;;;;3.63;2.75;;;16.40;99.90;16.70;99755.00;;;;4930531;28;110759;-65
2023/04/23 06:14:26;;;;;;;2.75;2.00;;;16.60;99.90;16.80;99756.00;;;;4932554;28;107608;-65
2023/04/23 06:16:51;;;;;;;3.58;2.58;;;16.60;99.90;16.90;99753.00;;;;4930371;28;117646;-65
2023/04/23 06:19:17;;;;;;;5.00;2.45;;;16.70;99.80;16.90;99751.00;;;;4932900;28;116745;-65
2023/04/23 06:21:43;;;;;;;2.80;2.60;;;16.80;99.40;17.00;99755.00;;;;4933841;28;110206;-65
2023/04/23 06:24:08;;;;;;;3.58;2.22;;;16.90;99.20;17.00;99758.00;;;;4934507;28;108415;-65
2023/04/23 06:26:34;;;;;;;3.17;2.15;;;16.90;98.80;17.10;99761.00;;;;4927869;28;117631;-66
2023/04/23 06:29:00;;;;;;;2.92;2.35;;;17.30;98.60;17.10;99752.00;;;;4931398;28;88456;-66
2023/04/23 06:31:26;;;;;;;3.85;2.70;;;17.00;98.10;17.10;99761.00;;;;4931925;28;88642;-66
2023/04/23 06:33:52;;;;;;;2.83;2.15;;;17.00;98.00;17.10;99761.00;;;;4930690;28;108756;-66
2023/04/23 06:36:18;;;;;;;2.97;2.45;;;17.00;97.70;17.10;99761.00;;;;4934494;28;89148;-66
2023/04/23 06:38:43;;;;;;;2.50;2.03;;;17.10;97.40;17.10;99768.00;;;;4935463;28;89013;-67
2023/04/23 06:41:10;;;;;;;4.72;2.25;;;17.10;96.60;17.20;99758.00;;;;4930970;28;96401;-66
2023/04/23 06:43:35;;;;;;;2.47;2.08;;;17.10;96.40;17.20;99760.00;;;;4932330;28;88958;-66
2023/04/23 06:46:01;;;;;;;3.63;2.50;;;17.10;96.30;17.40;99766.00;;;;4932574;28;117468;-66
2023/04/23 06:48:27;;;;;;;2.47;1.92;;;17.20;96.20;17.60;99756.00;;;;4930114;28;116203;-66
2023/04/23 06:50:52;;;;;;;4.28;2.08;;;17.50;96.10;17.80;99751.00;;;;4928354;28;109563;-67
2023/04/23 06:53:18;;;;;;;3.67;2.20;;;17.70;95.40;18.10;99758.00;;;;4933207;28;102810;-65
2023/04/23 06:55:44;;;;;;;2.38;2.00;;;17.80;94.00;18.30;99749.00;;;;4932021;28;117558;-66
2023/04/23 06:58:10;;;;;;;3.72;1.65;;;18.00;94.00;18.60;99751.00;;;;4930973;28;88425;-65
2023/04/23 07:00:36;;;;;;;3.17;1.95;;;18.30;93.20;18.90;99753.00;;;;4930661;28;88866;-66
2023/04/23 07:03:01;;;;;;;1.30;1.10;;;18.70;92.50;19.20;99751.00;;;;4927159;28;108596;-66
2023/04/23 07:05:27;;;;;;;3.75;1.88;;;19.00;90.60;19.40;99766.00;;;;4932059;28;89603;-66
2023/04/23 07:07:53;;;;;;;1.65;1.48;;;19.20;89.80;19.50;99750.00;;;;4927475;28;87821;-65
2023/04/23 07:10:19;;;;;;;2.60;1.70;;;19.30;88.40;19.70;99753.00;;;;4925365;28;110583;-66
2023/04/23 07:12:45;;;;;;;2.00;1.58;;;19.50;87.90;19.80;99758.00;;;;4932187;28;108844;-68
2023/04/23 07:15:11;;;;;;;2.10;1.52;;;19.60;87.10;20.00;99759.00;;;;4929391;28;88928;-66
2023/04/23 07:17:36;;;;;;;2.00;1.27;;;19.80;85.30;19.90;99770.00;;;;4929709;28;88749;-66
2023/04/23 07:20:07;;;;;;;1.83;1.40;;;19.80;84.30;19.90;99751.00;;;;4932266;28;110060;-67
2023/04/23 07:22:33;;;;;;;2.67;1.23;;;19.80;84.20;19.90;99763.00;;;;4928854;28;87946;-67
2023/04/23 07:24:59;;;;;;;2.75;1.50;;;19.80;83.60;19.60;99759.00;;;;4933222;28;90238;-67
2023/04/23 07:27:25;;;;;;;3.20;1.13;;;19.70;83.30;19.40;99779.00;;;;4929486;28;101383;-66
2023/04/23 07:29:51;;;;;;;2.55;1.55;;;19.40;84.20;19.20;99782.00;;;;4931740;28;110422;-65
2023/04/23 07:32:17;;;;;;;3.22;1.48;;;19.20;85.50;19.10;99773.00;;;;4932671;28;107138;-65
2023/04/23 07:34:42;;;;;;;1.63;1.52;;;19.00;86.20;18.90;99781.00;;;;4933571;28;111493;-65
2023/04/23 07:37:08;;;;;;;1.20;0.90;;;18.90;87.60;18.70;99775.00;;;;4931382;28;117512;-65
2023/04/23 07:39:34;;;;;;;1.65;1.13;;;18.70;88.70;18.50;99788.00;;;;4928843;28;87953;-66
2023/04/23 07:42:01;;;;;;;2.85;1.60;;;18.50;90.10;18.40;99792.00;;;;4931317;28;107412;-66
2023/04/23 07:44:26;;;;;;;3.08;1.67;;;18.40;90.70;18.20;99788.00;;;;4932739;28;88063;-65
2023/04/23 07:46:52;;;;;;;2.28;1.42;;;18.30;91.40;18.10;99791.00;;;;4931304;28;117793;-66
2023/04/23 07:49:18;;;;;;;1.65;1.02;;;18.10;91.80;18.10;99804.00;;;;4931601;28;88633;-66
2023/04/23 07:51:44;;;;;;;1.52;0.85;;;18.00;92.30;18.10;99802.00;;;;4932344;28;108853;-66
2023/04/23 07:54:10;;;;;;;1.83;1.33;;;18.00;92.60;18.20;99807.00;;;;4930644;28;116553;-66
2023/04/23 07:56:36;;;;;;;1.10;0.88;;;18.00;92.80;18.20;99805.00;;;;4932212;28;88612;-66
2023/04/23 07:59:03;;;;;;;1.88;1.40;;;18.10;92.90;18.30;99812.00;;;;4927756;28;110700;-65
2023/04/23 08:01:29;;;;;;;1.30;1.20;;;18.10;93.00;18.30;99805.00;;;;4933611;28;87924;-67
2023/04/23 08:03:55;;;;;;;2.20;0.85;;;18.20;93.10;18.30;99822.00;;;;4930920;28;87671;-66
2023/04/23 08:06:22;;;;;;;1.17;1.08;;;18.20;93.00;18.20;99822.00;;;;4924668;28;88203;-68
2023/04/23 08:08:48;;;;;;;2.20;1.27;;;18.10;93.00;18.20;99829.00;;;;4929992;28;87659;-66
2023/04/23 08:11:14;;;;;;;3.03;1.00;;;18.10;93.10;18.00;99826.00;;;;4931236;28;88130;-67
2023/04/23 08:13:40;;;;;;;2.33;1.20;;;18.00;93.20;17.90;99826.00;;;;4928814;28;89158;-67
2023/04/23 08:16:05;;;;;;;1.20;0.77;;;17.80;93.40;17.80;99839.00;;;;4928308;28;90695;-66
2023/04/23 08:18:31;;;;;;;1.63;1.40;;;17.70;93.70;17.70;99831.00;;;;4930994;28;87987;-66
2023/04/23 08:20:57;;;;;;;1.23;0.88;;;17.70;94.00;17.70;99836.00;;;;4931704;28;87971;-65
2023/04/23 08:23:23;;;;;;;0.52;0.50;;;17.60;94.20;17.80;99830.00;;;;4930439;28;116886;-66
2023/04/23 08:25:49;;;;;;;1.58;1.13;;;17.70;94.40;17.90;99827.00;;;;4926619;28;88586;-67
2023/04/23 08:28:15;;;;;;;1.23;1.05;;;17.70;94.50;18.10;99825.00;;;;4928509;28;88064;-65
2023/04/23 08:30:40;;;;;;;5.25;0.93;;;17.90;94.60;18.30;99811.00;;;;4933398;28;87099;-66
2023/04/23 08:33:06;;;;;;;3.03;1.00;;;18.10;94.40;18.60;99812.00;;;;4925939;28;120074;-65
2023/04/23 08:35:32;;;;;;;1.00;1.00;;;18.30;94.40;18.90;99821.00;;;;4928629;28;117904;-66
2023/04/23 08:37:58;;;;;;;1.52;1.17;;;18.60;94.00;19.00;99820.00;;;;4926865;28;110866;-66
2023/04/23 08:40:25;;;;;;;2.28;1.42;;;18.80;93.20;19.10;99819.00;;;;4932043;28;104098;-65
2023/04/23 08:42:57;;;;;;;1.67;1.58;;;18.90;92.50;19.20;99830.00;;;;4929826;28;116467;-66
2023/04/23 08:45:25;;;;;;;1.48;1.05;;;19.00;92.00;19.30;99824.00;;;;4932380;28;88804;-66
2023/04/23 08:47:50;;;;;;;1.85;1.45;;;19.10;92.00;19.50;99812.00;;;;4929223;28;87881;-65
2023/04/23 08:50:18;;;;;;;1.42;1.33;;;19.20;91.40;19.60;99820.00;;;;4928924;28;109701;-66
2023/04/23 08:52:54;;;;;;;0.75;0.70;;;19.40;90.30;19.60;99827.00;;;;4930466;28;88094;-67
2023/04/23 08:55:22;;;;;;;2.00;1.50;;;19.40;89.80;19.50;99826.00;;;;4928768;28;88081;-65
2023/04/23 08:57:49;;;;;;;1.35;1.13;;;19.40;89.20;19.50;99826.00;;;;4933394;28;87921;-68
2023/04/23 09:00:18;;;;;;;1.45;1.10;;;19.40;89.50;19.50;99829.00;;;;4928979;28;87843;-65
2023/04/23 09:02:46;;;;;;;1.17;0.93;;;19.30;89.90;19.50;99843.00;;;;4925761;28;89112;-65
2023/04/23 09:05:14;;;;;;;1.80;1.10;;;19.40;89.80;19.60;99833.00;;;;4927728;28;89539;-65
2023/04/23 09:07:41;;;;;;;3.55;1.42;;;19.40;90.00;19.70;99842.00;;;;4928816;28;88143;-67
2023/04/23 09:10:11;;;;;;;1.83;1.45;;;19.50;90.10;19.90;99835.00;;;;4928786;28;87747;-66
2023/04/23 09:12:41;;;;;;;1.40;1.15;;;19.70;89.40;20.00;99829.00;;;;4925558;28;88347;-66
2023/04/23 09:15:11;;;;;;;2.15;1.20;;;19.80;88.60;20.10;99839.00;;;;4928753;28;88926;-66
2023/04/23 09:17:44;;;;;;;1.10;1.02;;;19.90;88.50;20.10;99838.00;;;;4924789;28;87913;-66
2023/04/23 09:20:12;;;;;;;1.63;1.30;;;19.90;86.70;20.00;99839.00;;;;4930530;28;87092;-65
2023/04/23 09:22:45;;;;;;;1.27;1.15;;;19.90;85.80;19.80;99840.00;;;;4924402;28;107903;-65
2023/04/23 09:25:17;;;;;;;1.55;0.98;;;19.80;84.30;19.60;99846.00;;;;4932957;28;88314;-65
2023/04/23 09:27:44;;;;;;;1.02;1.00;;;19.60;85.20;19.50;99843.00;;;;4927546;28;88726;-66
2023/04/23 09:30:11;;;;;;;1.17;0.93;;;19.40;86.70;19.40;99841.00;;;;4927744;28;88083;-65
2023/04/23 09:32:40;;;;;;;2.90;1.20;;;19.30;87.30;19.30;99853.00;;;;4929770;28;93880;-65
2023/04/23 09:35:09;;;;;;;2.45;1.33;;;19.30;88.10;19.40;99848.00;;;;4930667;28;89258;-66
2023/04/23 09:37:35;;;;;;;1.25;1.15;;;19.20;89.30;19.50;99849.00;;;;4927201;28;88014;-66
2023/04/23 09:40:08;;;;;;;2.45;1.33;;;19.30;89.90;19.50;99851.00;;;;4929065;28;87642;-66
2023/04/23 09:42:35;;;;;;;2.38;1.40;;;19.30;89.80;19.40;99844.00;;;;4928869;28;88964;-67
2023/04/23 09:45:07;;;;;;;1.38;1.10;;;19.30;90.20;19.30;99850.00;;;;4928820;28;88582;-67
2023/04/23 09:47:48;;;;;;;1.92;1.60;;;19.20;90.30;19.20;99844.00;;;;4930473;28;88180;-65
2023/04/23 09:50:13;;;;;;;2.17;1.80;;;19.10;90.50;19.20;99831.00;;;;4931398;28;87780;-66
2023/04/23 09:52:40;;;;;;;1.55;1.45;;;19.10;90.70;19.30;99834.00;;;;4929192;28;119088;-66
2023/04/23 09:55:06;;;;;;;1.95;1.45;;;19.10;90.90;19.40;99843.00;;;;4929212;28;89759;-65
2023/04/23 09:57:52;;;;;;;1.23;1.00;;;19.20;91.00;19.40;99839.00;;;;4925288;28;87895;-65
2023/04/23 10:00:21;;;;;;;2.08;1.65;;;19.20;91.00;19.50;99841.00;;;;4924011;28;107849;-64
2023/04/23 10:02:49;;;;;;;1.20;1.10;;;19.30;90.80;19.50;99838.00;;;;4929468;28;88170;-65
2023/04/23 10:05:20;;;;;;;0.73;0.70;;;19.30;90.50;19.40;99842.00;;;;4930546;28;87767;-66
2023/04/23 10:07:49;;;;;;;2.40;0.88;;;19.30;90.30;19.40;99841.00;;;;4929723;28;87840;-68
2023/04/23 10:10:16;;;;;;;0.80;0.80;;;19.20;90.50;19.30;99835.00;;;;4929072;28;87263;-65
2023/04/23 10:12:43;;;;;;;1.55;0.98;;;19.20;90.40;19.30;99843.00;;;;4931362;28;105050;-65
2023/04/23 10:15:10;;;;;;;1.65;1.10;;;19.20;90.30;19.20;99844.00;;;;4928851;28;88685;-65
2023/04/23 10:17:37;;;;;;;0.63;0.63;;;19.10;90.60;19.20;99846.00;;;;4926241;28;88851;-65
2023/04/23 10:20:05;;;;;;;1.38;0.75;;;19.00;90.80;19.10;99851.00;;;;4923095;28;100947;-66
2023/04/23 10:22:34;;;;;;;0.57;0.57;;;19.00;91.00;19.00;99848.00;;;;4931768;28;88967;-66
2023/04/23 10:25:05;;;;;;;2.40;0.73;;;18.90;91.10;18.90;99853.00;;;;4930437;28;94845;-67
2023/04/23 10:27:32;;;;;;;0.40;0.40;;;18.80;91.30;18.70;99843.00;;;;4926690;28;88996;-66
2023/04/23 10:29:59;;;;;;;1.35;0.80;;;18.70;91.20;18.60;99844.00;;;;4929114;28;109651;-66
2023/04/23 10:32:26;;;;;;;0.75;0.70;;;18.50;91.40;18.60;99847.00;;;;4927746;28;96477;-66
2023/04/23 10:34:53;;;;;;;5.25;0.77;;;18.50;91.70;18.70;99842.00;;;;4928740;28;95541;-66
2023/04/23 10:37:19;;;;;;;0.30;0.30;;;18.50;91.90;18.80;99845.00;;;;4927879;28;110440;-66
2023/04/23 10:39:49;;;;;;;1.00;0.70;;;18.60;92.10;19.00;99848.00;;;;4929286;28;108571;-66
2023/04/23 10:42:16;;;;;;;0.60;0.57;;;18.80;91.90;19.20;99850.00;;;;4927608;28;109424;-66
2023/04/23 10:44:42;;;;;;;0.68;0.60;;;18.90;91.10;19.30;99840.00;;;;4934291;28;119895;-66
2023/04/23 10:47:14;;;;;;;0.60;0.60;;;19.10;91.20;19.50;99846.00;;;;4933822;28;109838;-66